Time;durP1;ratioP1;P1;durP2;ratioP2;P2;SDS_P1;SDS_P2;PMS_P1;PMS_P2;Temp;Humidity;BMP_temperature;BMP_pressure;BME280_temperature;BME280_humidity;BME280_pressure;Samples;Min_cycle;Max_cycle;Signal;HPM_P1;HPM_P2
2022/07/07 00:03:51;;;;;;;3.92;1.90;;;;;;;20.18;45.63;100073.59;7738300;32;38890;-72
2022/07/07 00:08:07;;;;;;;5.75;1.62;;;;;;;20.05;46.00;100072.66;7765540;32;37114;-72
2022/07/07 00:12:23;;;;;;;2.85;1.55;;;;;;;19.83;46.41;100082.78;7765190;32;38047;-72
2022/07/07 00:16:39;;;;;;;2.00;1.52;;;;;;;19.91;46.19;100080.34;7746848;32;40818;-72
2022/07/07 00:20:55;;;;;;;1.52;1.42;;;;;;;19.96;46.23;100083.72;7737911;32;37917;-72
2022/07/07 00:25:11;;;;;;;3.37;1.73;;;;;;;19.76;46.15;100082.44;7746361;32;37677;-71
2022/07/07 00:29:27;;;;;;;3.35;1.60;;;;;;;19.74;46.48;100076.44;7765229;32;39214;-72
2022/07/07 00:33:44;;;;;;;3.12;1.75;;;;;;;19.82;46.05;100070.06;7764905;32;41598;-72
2022/07/07 00:38:00;;;;;;;2.47;1.67;;;;;;;19.72;45.92;100069.56;7738237;32;38739;-72
2022/07/07 00:42:16;;;;;;;4.65;1.42;;;;;;;19.45;46.02;100072.31;7737869;32;36924;-72
2022/07/07 00:46:42;;;;;;;4.72;1.83;;;;;;;19.59;45.63;100082.41;7754538;32;39950;-72
2022/07/07 00:50:58;;;;;;;2.60;1.98;;;;;;;19.61;45.54;100072.66;7763581;32;41199;-72
2022/07/07 00:55:15;;;;;;;2.37;1.80;;;;;;;19.55;45.83;100070.41;7761724;32;37715;-71
2022/07/07 00:59:33;;;;;;;1.92;1.70;;;;;;;19.40;46.30;100075.25;7764424;32;36915;-71
2022/07/07 01:03:49;;;;;;;2.62;1.80;;;;;;;19.12;46.59;100075.53;7752927;32;39822;-71
2022/07/07 01:08:08;;;;;;;1.85;1.67;;;;;;;18.77;47.37;100080.94;7737340;32;39769;-71
2022/07/07 01:12:25;;;;;;;4.07;1.65;;;;;;;19.02;46.52;100078.59;7737512;32;37160;-71
2022/07/07 01:16:41;;;;;;;2.90;1.77;;;;;;;19.01;46.38;100073.44;7764030;32;36920;-72
2022/07/07 01:21:00;;;;;;;2.70;1.95;;;;;;;18.78;46.89;100076.22;7763786;32;39264;-72
2022/07/07 01:25:16;;;;;;;2.37;1.52;;;;;;;18.62;47.49;100066.78;7746182;32;40708;-72
2022/07/07 01:29:41;;;;;;;1.98;1.77;;;;;;;18.66;47.08;100062.22;7736787;32;37704;-72
2022/07/07 01:33:57;;;;;;;1.70;1.60;;;;;;;18.67;47.18;100059.16;7746076;32;36953;-71
2022/07/07 01:38:13;;;;;;;2.70;2.30;;;;;;;18.53;47.66;100059.25;7763251;32;39228;-71
2022/07/07 01:42:30;;;;;;;1.92;1.70;;;;;;;18.41;48.09;100056.28;7763148;32;40818;-71
2022/07/07 01:46:46;;;;;;;4.40;1.95;;;;;;;18.15;48.49;100061.69;7736239;32;38872;-72
2022/07/07 01:51:02;;;;;;;2.92;2.03;;;;;;;18.12;48.76;100065.06;7736159;32;37724;-72
2022/07/07 01:55:18;;;;;;;3.03;1.77;;;;;;;18.01;49.10;100076.34;7753782;32;39398;-71
2022/07/07 01:59:35;;;;;;;2.58;1.83;;;;;;;18.03;49.09;100073.28;7763011;32;40572;-71
2022/07/07 02:03:52;;;;;;;1.62;1.52;;;;;;;18.18;48.31;100066.56;7743405;32;37967;-72
2022/07/07 02:08:08;;;;;;;2.40;1.80;;;;;;;18.25;47.87;100068.84;7735836;32;37656;-72
2022/07/07 02:12:24;;;;;;;4.80;1.92;;;;;;;18.05;48.45;100076.53;7745017;32;40011;-72
2022/07/07 02:16:40;;;;;;;2.28;1.87;;;;;;;18.13;48.29;100074.97;7763916;32;39801;-71
2022/07/07 02:20:56;;;;;;;1.65;1.55;;;;;;;17.99;48.91;100077.81;7766159;32;38714;-70
2022/07/07 02:25:13;;;;;;;2.20;1.85;;;;;;;18.25;48.61;100066.94;7739586;32;37525;-71
2022/07/07 02:29:29;;;;;;;2.10;1.90;;;;;;;18.24;49.13;100061.72;7739570;32;39096;-72
2022/07/07 02:33:45;;;;;;;2.80;1.87;;;;;;;18.11;50.00;100071.69;7756992;32;40832;-72
2022/07/07 02:38:02;;;;;;;2.85;1.85;;;;;;;17.99;49.57;100069.53;7766313;32;38129;-72
2022/07/07 02:42:18;;;;;;;2.22;2.00;;;;;;;18.08;48.84;100064.06;7757561;32;37035;-72
2022/07/07 02:46:34;;;;;;;1.98;1.60;;;;;;;18.05;48.35;100065.50;7739289;32;39894;-72
2022/07/07 02:50:51;;;;;;;1.80;1.70;;;;;;;17.91;48.41;100070.28;7739070;32;40792;-71
2022/07/07 02:55:08;;;;;;;2.47;2.03;;;;;;;17.77;49.18;100082.16;7765300;32;37960;-72
2022/07/07 02:59:24;;;;;;;2.55;1.70;;;;;;;17.92;48.94;100083.78;7765497;32;37663;-71
2022/07/07 03:03:40;;;;;;;2.47;1.67;;;;;;;17.82;49.59;100089.50;7739095;32;39918;-72
2022/07/07 03:07:56;;;;;;;3.42;2.10;;;;;;;17.74;50.50;100085.53;7740415;32;40724;-71
2022/07/07 03:12:22;;;;;;;2.85;1.70;;;;;;;17.70;51.72;100086.50;7765777;32;37943;-72
2022/07/07 03:16:38;;;;;;;2.00;1.80;;;;;;;17.81;51.30;100087.87;7765911;32;37700;-71
2022/07/07 03:20:55;;;;;;;3.22;1.98;;;;;;;17.88;50.77;100082.75;7744947;32;40030;-71
2022/07/07 03:25:12;;;;;;;4.85;1.85;;;;;;;18.05;50.37;100081.25;7738729;32;39897;-71
2022/07/07 03:29:28;;;;;;;2.75;2.00;;;;;;;18.02;50.17;100072.50;7749549;32;37617;-71
2022/07/07 03:33:44;;;;;;;2.62;2.10;;;;;;;17.86;50.31;100085.00;7765630;32;37445;-72
2022/07/07 03:38:00;;;;;;;2.15;1.80;;;;;;;17.84;49.78;100081.72;7763947;32;39315;-71
2022/07/07 03:42:16;;;;;;;3.22;2.10;;;;;;;18.08;48.69;100080.63;7738668;32;39681;-72
2022/07/07 03:46:33;;;;;;;3.58;2.30;;;;;;;18.05;49.38;100086.78;7738479;32;37757;-72
2022/07/07 03:50:49;;;;;;;1.73;1.62;;;;;;;17.99;49.64;100081.37;7757482;32;37767;-72
2022/07/07 03:55:06;;;;;;;2.05;1.80;;;;;;;18.01;49.89;100081.88;7765314;32;40114;-72
2022/07/07 03:59:22;;;;;;;2.30;2.10;;;;;;;18.02;49.66;100078.00;7755756;32;41005;-72
2022/07/07 04:03:38;;;;;;;3.92;2.20;;;;;;;17.83;51.56;100080.09;7738353;32;37785;-72
2022/07/07 04:07:55;;;;;;;2.33;1.95;;;;;;;18.08;52.04;100083.38;7737123;32;36716;-70
2022/07/07 04:12:11;;;;;;;3.30;2.03;;;;;;;18.01;52.93;100087.41;7764910;32;38706;-79
2022/07/07 04:16:29;;;;;;;3.15;1.90;;;;;;;18.09;53.74;100085.00;7765162;32;39918;-72
2022/07/07 04:20:45;;;;;;;2.30;2.10;;;;;;;18.19;52.97;100087.50;7745451;32;37713;-71
2022/07/07 04:25:01;;;;;;;3.70;2.00;;;;;;;18.24;53.36;100072.75;7738242;32;36948;-71
2022/07/07 04:29:17;;;;;;;4.30;2.33;;;;;;;18.25;53.68;100072.44;7747456;32;39300;-72
2022/07/07 04:33:41;;;;;;;2.53;2.08;;;;;;;18.23;53.97;100069.19;7764868;32;39930;-71
2022/07/07 04:37:57;;;;;;;2.58;1.90;;;;;;;18.30;53.90;100063.19;7757873;32;38005;-77
2022/07/07 04:42:13;;;;;;;5.78;2.10;;;;;;;18.34;54.50;100070.53;7737605;32;37717;-70
2022/07/07 04:46:29;;;;;;;2.65;1.90;;;;;;;18.45;53.68;100065.53;7737850;32;40844;-70
2022/07/07 04:50:46;;;;;;;2.65;2.10;;;;;;;18.54;53.22;100062.81;7761862;32;40892;-70
2022/07/07 04:55:02;;;;;;;2.72;2.22;;;;;;;18.54;53.92;100065.59;7764404;32;37972;-70
2022/07/07 04:59:18;;;;;;;4.97;2.10;;;;;;;18.74;53.36;100065.00;7749326;32;37721;-69
2022/07/07 05:03:34;;;;;;;5.55;2.25;;;;;;;18.69;53.68;100056.06;7737465;32;39067;-70
2022/07/07 05:07:50;;;;;;;2.85;2.00;;;;;;;18.82;52.80;100059.88;7742855;32;38353;-71
2022/07/07 05:12:07;;;;;;;3.10;2.28;;;;;;;18.91;52.06;100066.25;7764099;32;37785;-70
2022/07/07 05:16:23;;;;;;;3.35;2.05;;;;;;;19.15;50.67;100060.28;7764064;32;36856;-72
2022/07/07 05:20:39;;;;;;;2.95;2.08;;;;;;;18.94;51.53;100068.38;7740380;32;39557;-71
2022/07/07 05:24:55;;;;;;;4.07;2.20;;;;;;;19.23;50.72;100059.47;7736855;32;39923;-72
2022/07/07 05:29:11;;;;;;;3.42;2.30;;;;;;;18.98;51.63;100066.59;7750051;32;39426;-70
2022/07/07 05:33:28;;;;;;;5.72;2.33;;;;;;;19.32;50.90;100063.06;7763673;32;37003;-69
2022/07/07 05:37:44;;;;;;;4.90;2.28;;;;;;;19.32;51.69;100060.28;7756595;32;40000;-71
2022/07/07 05:42:00;;;;;;;3.28;2.33;;;;;;;19.74;50.68;100057.06;7736779;32;40113;-72
2022/07/07 05:46:16;;;;;;;3.95;2.25;;;;;;;19.84;50.82;100061.47;7736325;32;38744;-71
2022/07/07 05:50:32;;;;;;;2.75;2.00;;;;;;;19.73;51.68;100058.19;7761039;32;37778;-71
2022/07/07 05:54:48;;;;;;;3.35;2.45;;;;;;;19.70;50.41;100058.84;7766817;32;39054;-70
2022/07/07 05:59:05;;;;;;;3.80;2.22;;;;;;;19.61;51.36;100069.06;7751541;32;39681;-71
2022/07/07 06:03:21;;;;;;;14.52;3.10;;;;;;;19.77;50.96;100059.19;7739854;32;37915;-70
2022/07/07 06:07:38;;;;;;;3.80;2.58;;;;;;;20.12;48.82;100058.31;7745137;32;37957;-69
2022/07/07 06:11:54;;;;;;;6.95;2.22;;;;;;;20.45;47.82;100048.28;7766683;32;39087;-71
2022/07/07 06:16:11;;;;;;;5.05;1.83;;;;;;;20.85;48.04;100052.66;7766632;32;40591;-69
2022/07/07 06:20:27;;;;;;;3.70;2.00;;;;;;;21.29;47.60;100060.72;7742458;32;38617;-70
2022/07/07 06:24:43;;;;;;;2.75;2.22;;;;;;;21.47;47.89;100053.91;7739408;32;36849;-71
2022/07/07 06:28:59;;;;;;;3.33;2.20;;;;;;;21.35;48.00;100051.03;7754341;32;39309;-71
2022/07/07 06:33:15;;;;;;;5.87;2.37;;;;;;;21.30;49.07;100063.16;7766484;32;39400;-71
2022/07/07 06:37:31;;;;;;;4.78;2.15;;;;;;;21.61;48.48;100052.81;7758927;32;38723;-71
2022/07/07 06:41:47;;;;;;;4.93;2.28;;;;;;;21.88;48.47;100056.97;7739401;32;36995;-71
2022/07/07 06:46:04;;;;;;;2.40;2.10;;;;;;;21.86;48.84;100048.97;7739283;32;39379;-72
2022/07/07 06:50:20;;;;;;;2.83;2.03;;;;;;;21.75;49.08;100048.59;7763969;32;39891;-72
2022/07/07 06:54:38;;;;;;;5.87;2.40;;;;;;;22.18;48.85;100042.94;7754969;32;38532;-72
2022/07/07 06:58:54;;;;;;;5.28;2.08;;;;;;;22.33;47.60;100039.50;7739464;32;37156;-72
2022/07/07 07:03:10;;;;;;;3.12;2.30;;;;;;;22.18;48.16;100038.22;7738774;32;39243;-72
2022/07/07 07:07:28;;;;;;;8.40;2.17;;;;;;;22.52;47.07;100040.94;7738889;32;41247;-72
2022/07/07 07:11:45;;;;;;;4.05;2.28;;;;;;;23.18;45.81;100028.72;7749892;32;38048;-73
2022/07/07 07:16:02;;;;;;;3.78;2.00;;;;;;;23.34;43.47;100026.03;7749694;32;36926;-71
2022/07/07 07:20:18;;;;;;;3.45;2.30;;;;;;;23.74;41.43;100027.97;7739463;32;39218;-71
2022/07/07 07:24:34;;;;;;;3.17;1.90;;;;;;;23.93;39.20;100017.00;7755406;32;40798;-71
2022/07/07 07:28:50;;;;;;;6.65;2.08;;;;;;;23.85;39.31;100017.97;7737796;32;38513;-71
2022/07/07 07:33:06;;;;;;;2.90;1.80;;;;;;;24.41;37.24;100010.66;7738665;32;36724;-71
2022/07/07 07:37:23;;;;;;;4.72;1.87;;;;;;;24.53;34.66;100011.34;7738807;32;38996;-71
2022/07/07 07:41:39;;;;;;;2.47;1.60;;;;;;;24.62;33.44;100005.63;7738651;32;39789;-74
2022/07/07 07:45:56;;;;;;;4.12;1.70;;;;;;;24.88;32.39;100012.59;7738489;32;38861;-72
2022/07/07 07:50:14;;;;;;;1.85;1.37;;;;;;;25.16;32.35;100006.03;7738575;32;37801;-72
2022/07/07 07:54:30;;;;;;;4.12;1.83;;;;;;;25.55;30.54;100011.66;7738469;32;38529;-72
2022/07/07 07:58:46;;;;;;;3.58;1.87;;;;;;;25.69;30.65;100006.34;7738461;32;39765;-72
2022/07/07 08:03:03;;;;;;;1.50;1.40;;;;;;;25.71;31.76;100009.56;7738685;32;37150;-72
2022/07/07 08:07:19;;;;;;;1.40;1.30;;;;;;;26.18;28.90;100008.50;7738278;32;37656;-72
2022/07/07 08:11:35;;;;;;;1.95;1.20;;;;;;;26.45;27.10;100002.16;7738504;32;40149;-72
2022/07/07 08:15:52;;;;;;;3.00;1.50;;;;;;;26.19;24.33;100001.72;7737203;32;40052;-72
2022/07/07 08:20:09;;;;;;;1.58;1.30;;;;;;;26.58;24.10;99997.97;7737863;32;37961;-72
2022/07/07 08:24:25;;;;;;;2.30;1.60;;;;;;;26.36;23.69;99994.00;7738138;32;36850;-72
2022/07/07 08:28:41;;;;;;;2.45;1.05;;;;;;;26.90;24.52;99989.25;7738305;32;39267;-72
2022/07/07 08:32:57;;;;;;;2.37;1.20;;;;;;;27.13;24.46;99986.37;7735431;32;40037;-73
2022/07/07 08:37:14;;;;;;;2.30;1.48;;;;;;;26.85;22.91;99970.00;7737759;32;38809;-73
2022/07/07 08:41:30;;;;;;;3.28;1.40;;;;;;;27.07;22.25;99976.72;7737807;32;37703;-73
2022/07/07 08:45:48;;;;;;;3.10;1.37;;;;;;;27.46;24.27;99970.84;7737533;32;39146;-73
2022/07/07 08:50:04;;;;;;;4.55;1.40;;;;;;;27.76;23.52;99967.16;7736233;32;40009;-72
2022/07/07 08:54:22;;;;;;;2.95;1.20;;;;;;;28.16;24.93;99960.75;7756904;32;40556;-73
2022/07/07 08:58:39;;;;;;;5.97;1.60;;;;;;;27.86;24.49;99964.44;7754438;32;38062;-72
2022/07/07 09:03:15;;;;;;;1.65;1.33;;;;;;;28.36;24.89;99952.09;7736984;32;39551;-72
2022/07/07 09:07:45;;;;;;;4.35;1.37;;;;;;;28.66;24.33;99946.31;7736486;32;40938;-72
2022/07/07 09:12:03;;;;;;;3.08;1.30;;;;;;;28.87;22.47;99959.66;7759061;32;37960;-73
2022/07/07 09:16:23;;;;;;;3.17;1.67;;;;;;;28.77;23.40;99968.81;7761206;32;36639;-72
2022/07/07 09:20:39;;;;;;;3.60;1.48;;;;;;;28.11;23.41;99955.50;7749126;32;40048;-72
2022/07/07 09:24:56;;;;;;;3.65;1.40;;;;;;;28.10;23.35;99954.69;7736720;32;40906;-73
2022/07/07 09:29:17;;;;;;;2.62;1.50;;;;;;;28.50;23.04;99960.63;7739995;32;37862;-72
2022/07/07 09:33:34;;;;;;;1.40;1.30;;;;;;;28.96;23.63;99956.50;7744271;32;37794;-72
2022/07/07 09:38:14;;;;;;;4.28;1.52;;;;;;;28.78;22.60;99951.59;7753620;32;37643;-72
2022/07/07 09:42:32;;;;;;;1.42;1.20;;;;;;;28.92;24.57;99953.66;7753006;32;37940;-72
2022/07/07 09:46:48;;;;;;;1.87;1.60;;;;;;;29.14;23.08;99954.59;7752296;32;38712;-71
2022/07/07 09:51:30;;;;;;;3.03;1.60;;;;;;;28.74;22.78;99947.19;7739498;32;37082;-72
2022/07/07 09:56:00;;;;;;;2.08;1.40;;;;;;;28.19;23.58;99948.75;7739943;32;39184;-72
2022/07/07 10:00:17;;;;;;;3.05;1.80;;;;;;;28.07;24.06;99951.88;7738110;32;39627;-72
2022/07/07 10:04:34;;;;;;;3.20;2.00;;;;;;;27.87;25.71;99960.47;7739802;32;38063;-72
2022/07/07 10:08:55;;;;;;;3.65;1.50;;;;;;;26.67;27.03;99953.00;7739786;32;38514;-72
2022/07/07 10:13:11;;;;;;;7.12;1.62;;;;;;;26.81;27.84;99955.19;7738354;32;39088;-72
2022/07/07 10:17:28;;;;;;;3.25;1.60;;;;;;;26.76;28.34;99954.31;7735100;32;39519;-72
2022/07/07 10:21:47;;;;;;;9.82;3.65;;;;;;;27.16;27.40;99944.47;7736020;32;38963;-72
2022/07/07 10:26:04;;;;;;;3.42;1.40;;;;;;;27.09;29.19;99933.16;7734225;32;36092;-72
2022/07/07 10:30:31;;;;;;;2.50;1.45;;;;;;;27.24;27.28;99930.56;7737456;32;39098;-75
2022/07/07 10:34:53;;;;;;;3.35;1.58;;;;;;;27.46;28.16;99926.06;7738668;32;39847;-71
2022/07/07 10:39:10;;;;;;;1.97;1.70;;;;;;;26.58;28.09;99934.47;7738375;32;38030;-72
2022/07/07 10:43:34;;;;;;;3.60;1.60;;;;;;;26.71;29.37;99928.69;7737848;32;37099;-72
2022/07/07 10:47:58;;;;;;;2.33;1.42;;;;;;;26.88;27.66;99928.12;7738126;32;39926;-71
2022/07/07 10:52:21;;;;;;;1.40;1.30;;;;;;;27.41;27.11;99924.37;7738612;32;39764;-71
2022/07/07 10:56:53;;;;;;;2.40;1.55;;;;;;;27.98;27.18;99914.97;7738748;32;37896;-71
2022/07/07 11:01:09;;;;;;;2.37;1.40;;;;;;;28.15;26.45;99911.50;7738239;32;36951;-71
2022/07/07 11:05:29;;;;;;;1.75;1.40;;;;;;;27.21;27.44;99909.72;7739122;32;39308;-71
2022/07/07 11:10:08;;;;;;;5.37;1.58;;;;;;;28.12;26.02;99900.28;7738152;32;39751;-72
2022/07/07 11:14:24;;;;;;;2.78;1.48;;;;;;;29.10;25.00;99892.03;7738924;32;37905;-72
2022/07/07 11:18:49;;;;;;;4.25;1.58;;;;;;;29.30;25.94;99895.31;7739245;32;38161;-72
2022/07/07 11:23:12;;;;;;;4.10;1.60;;;;;;;28.96;25.89;99889.16;7739456;32;39209;-72
2022/07/07 11:27:29;;;;;;;5.65;1.80;;;;;;;29.15;26.49;99893.66;7739049;32;39747;-72
2022/07/07 11:31:45;;;;;;;3.08;1.35;;;;;;;28.93;25.46;99881.56;7738799;32;37373;-72
2022/07/07 11:36:20;;;;;;;1.90;1.42;;;;;;;28.29;26.61;99871.56;7738930;32;36953;-72
2022/07/07 11:40:40;;;;;;;2.35;1.50;;;;;;;29.18;25.79;99876.84;7738838;32;39384;-73
2022/07/07 11:44:56;;;;;;;2.72;1.62;;;;;;;28.96;26.01;99869.50;7738665;32;39908;-73
2022/07/07 11:49:15;;;;;;;1.48;1.37;;;;;;;28.75;26.10;99857.03;7737448;32;37899;-72
2022/07/07 11:53:32;;;;;;;4.55;1.50;;;;;;;28.34;26.22;99867.56;7737445;32;36988;-72
2022/07/07 11:57:52;;;;;;;3.20;1.80;;;;;;;28.62;25.28;99866.97;7738509;32;39204;-72
2022/07/07 12:02:19;;;;;;;1.98;1.60;;;;;;;29.07;25.69;99852.72;7738588;32;39847;-73
2022/07/07 12:06:35;;;;;;;4.00;1.50;;;;;;;29.74;25.30;99854.06;7738379;32;37627;-72
2022/07/07 12:10:52;;;;;;;3.90;1.40;;;;;;;29.82;24.40;99850.09;7738544;32;37623;-72
2022/07/07 12:15:09;;;;;;;2.65;1.60;;;;;;;29.35;25.43;99846.41;7738255;32;39975;-72
2022/07/07 12:19:25;;;;;;;6.93;1.87;;;;;;;28.07;28.60;99849.00;7736827;32;39862;-72
2022/07/07 12:23:43;;;;;;;3.30;1.80;;;;;;;28.17;29.05;99841.06;7738073;32;38768;-73
2022/07/07 12:28:01;;;;;;;3.33;1.67;;;;;;;27.74;31.26;99844.31;7738167;32;38529;-72
2022/07/07 12:32:23;;;;;;;2.87;2.08;;;;;;;28.00;28.71;99842.53;7738138;32;39284;-72
2022/07/07 12:36:41;;;;;;;8.07;1.80;;;;;;;28.46;28.53;99826.00;7738114;32;39865;-72
2022/07/07 12:41:05;;;;;;;2.55;1.80;;;;;;;28.86;27.56;99826.22;7737938;32;38000;-72
2022/07/07 12:45:21;;;;;;;2.80;1.50;;;;;;;29.15;25.62;99815.06;7736665;32;37741;-73
2022/07/07 12:49:37;;;;;;;2.90;1.60;;;;;;;29.39;25.97;99816.34;7737868;32;40061;-73
2022/07/07 12:53:55;;;;;;;5.82;1.60;;;;;;;29.97;24.53;99811.53;7736376;32;40016;-72
2022/07/07 12:58:13;;;;;;;1.92;1.52;;;;;;;29.36;26.40;99808.72;7737570;32;38533;-72
2022/07/07 13:02:30;;;;;;;3.65;1.70;;;;;;;29.13;26.05;99809.84;7736994;32;37577;-72
2022/07/07 13:06:46;;;;;;;2.92;2.00;;;;;;;28.38;27.10;99807.53;7737463;32;39913;-72
2022/07/07 13:11:05;;;;;;;1.87;1.33;;;;;;;27.20;30.39;99812.16;7736985;32;39732;-72
2022/07/07 13:15:21;;;;;;;3.00;1.40;;;;;;;26.67;28.79;99814.00;7737189;32;38622;-72
2022/07/07 13:19:38;;;;;;;1.52;1.10;;;;;;;26.30;27.71;99834.25;7728767;32;263834;-71
2022/07/07 13:23:54;;;;;;;5.97;1.60;;;;;;;25.90;26.56;99848.75;7737061;32;39282;-71
2022/07/07 13:28:11;;;;;;;3.72;1.80;;;;;;;24.50;33.07;99835.72;7736924;32;40876;-72
2022/07/07 13:32:27;;;;;;;4.07;2.30;;;;;;;23.56;35.62;99846.59;7735618;32;38535;-72
2022/07/07 13:36:43;;;;;;;1.70;1.60;;;;;;;23.05;35.94;99850.00;7737139;32;36902;-72
2022/07/07 13:41:00;;;;;;;2.75;1.80;;;;;;;23.35;35.75;99839.34;7736717;32;39197;-72
2022/07/07 13:45:32;;;;;;;2.17;1.80;;;;;;;23.95;35.90;99828.13;7736575;32;39872;-72
2022/07/07 13:49:48;;;;;;;3.55;2.05;;;;;;;24.42;34.04;99825.59;7734910;32;37918;-72
2022/07/07 13:54:27;;;;;;;1.83;1.70;;;;;;;24.54;35.01;99815.16;7736036;32;38129;-72
2022/07/07 13:58:43;;;;;;;3.45;1.90;;;;;;;25.35;35.17;99807.97;7736414;32;39304;-73
2022/07/07 14:02:59;;;;;;;2.20;2.00;;;;;;;25.75;36.09;99798.28;7736023;32;41012;-72
2022/07/07 14:07:15;;;;;;;4.95;2.45;;;;;;;25.60;37.88;99797.25;7736032;32;37932;-72
2022/07/07 14:11:32;;;;;;;5.03;2.10;;;;;;;26.48;37.62;99788.97;7736137;32;37210;-72
2022/07/07 14:15:48;;;;;;;7.32;1.80;;;;;;;26.91;37.43;99793.09;7738482;32;39171;-73
2022/07/07 14:20:05;;;;;;;4.35;2.00;;;;;;;26.96;34.88;99781.56;7739387;32;40787;-72
2022/07/07 14:24:22;;;;;;;4.47;2.20;;;;;;;26.97;32.70;99783.19;7739533;32;38134;-72
2022/07/07 14:28:38;;;;;;;2.33;1.80;;;;;;;27.25;30.55;99786.63;7739838;32;37702;-72
2022/07/07 14:32:54;;;;;;;5.65;1.73;;;;;;;27.47;29.63;99776.47;7739556;32;39166;-72
2022/07/07 14:37:10;;;;;;;4.37;1.90;;;;;;;27.12;28.74;99777.72;7739255;32;38528;-73
2022/07/07 14:41:27;;;;;;;4.28;1.60;;;;;;;26.95;28.87;99779.16;7739344;32;38543;-73
2022/07/07 14:45:44;;;;;;;1.87;1.60;;;;;;;26.77;27.27;99790.16;7739315;32;36985;-73
2022/07/07 14:50:00;;;;;;;4.05;1.40;;;;;;;26.59;27.02;99793.50;7739334;32;39223;-73
2022/07/07 14:54:18;;;;;;;2.78;1.50;;;;;;;26.70;26.51;99806.81;7739381;32;39489;-73
2022/07/07 14:58:35;;;;;;;4.80;1.62;;;;;;;26.14;26.02;99809.25;7739180;32;39431;-72
2022/07/07 15:02:51;;;;;;;3.95;1.60;;;;;;;26.28;26.12;99796.69;7739198;32;37732;-72
2022/07/07 15:07:08;;;;;;;5.50;1.60;;;;;;;25.99;26.13;99802.69;7739237;32;39263;-72
2022/07/07 15:11:24;;;;;;;5.80;1.50;;;;;;;25.87;26.50;99802.84;7739067;32;39980;-72
2022/07/07 15:15:41;;;;;;;3.95;1.30;;;;;;;25.79;25.95;99804.72;7738853;32;37925;-72
2022/07/07 15:19:57;;;;;;;1.67;1.05;;;;;;;25.43;26.73;99820.88;7738815;32;36714;-72
2022/07/07 15:24:13;;;;;;;1.45;1.35;;;;;;;25.57;27.07;99813.94;7738790;32;39125;-71
2022/07/07 15:28:29;;;;;;;6.53;1.20;;;;;;;25.55;27.08;99821.88;7738881;32;39958;-72
2022/07/07 15:32:46;;;;;;;5.40;1.40;;;;;;;25.28;28.26;99816.22;7738754;32;38657;-72
2022/07/07 15:37:03;;;;;;;4.62;1.70;;;;;;;24.61;29.69;99825.66;7738754;32;36734;-72
2022/07/07 15:41:19;;;;;;;3.50;1.45;;;;;;;24.87;27.01;99818.59;7738819;32;39741;-72
2022/07/07 15:45:35;;;;;;;6.18;1.17;;;;;;;25.19;26.06;99821.19;7738650;32;40663;-72
2022/07/07 15:49:51;;;;;;;2.62;1.20;;;;;;;25.31;23.61;99823.84;7755347;32;38613;-72
2022/07/07 15:54:07;;;;;;;10.35;1.27;;;;;;;25.40;23.08;99829.19;7765250;32;36875;-71
2022/07/07 15:58:23;;;;;;;3.72;1.50;;;;;;;25.13;23.45;99837.44;7764395;32;39222;-72
2022/07/07 16:02:39;;;;;;;3.37;1.50;;;;;;;25.05;23.68;99830.91;7764480;32;40766;-72
2022/07/07 16:06:56;;;;;;;2.62;1.25;;;;;;;25.21;26.34;99838.38;7764056;32;37909;-72
2022/07/07 16:11:12;;;;;;;3.20;1.23;;;;;;;25.28;27.11;99841.31;7764429;32;36917;-72
2022/07/07 16:15:28;;;;;;;2.08;1.48;;;;;;;24.67;29.01;99834.53;7765195;32;39244;-72
2022/07/07 16:19:45;;;;;;;1.40;1.30;;;;;;;24.28;30.81;99851.94;7764196;32;40750;-71
2022/07/07 16:24:02;;;;;;;4.50;1.83;;;;;;;24.28;30.67;99853.94;7764702;32;37958;-72
2022/07/07 16:28:18;;;;;;;3.15;1.37;;;;;;;23.99;32.38;99861.59;7764833;32;36841;-72
2022/07/07 16:32:35;;;;;;;4.07;1.50;;;;;;;23.89;33.31;99862.97;7764321;32;39833;-72
2022/07/07 16:36:52;;;;;;;4.82;1.67;;;;;;;23.51;33.88;99867.16;7764019;32;40759;-72
2022/07/07 16:41:08;;;;;;;1.98;1.20;;;;;;;22.80;35.60;99864.00;7763880;32;38041;-72
2022/07/07 16:45:24;;;;;;;3.10;1.30;;;;;;;23.10;35.15;99866.44;7763598;32;37611;-71
2022/07/07 16:49:40;;;;;;;3.53;1.37;;;;;;;22.80;34.34;99865.94;7763781;32;39252;-72
2022/07/07 16:54:02;;;;;;;1.30;1.10;;;;;;;23.15;34.92;99868.19;7764518;32;41973;-71
2022/07/07 16:58:19;;;;;;;2.87;1.00;;;;;;;23.39;34.29;99876.38;7764870;32;36936;-72
2022/07/07 17:02:35;;;;;;;3.17;1.17;;;;;;;23.00;34.71;99867.72;7763765;32;37587;-72
2022/07/07 17:06:51;;;;;;;2.65;1.42;;;;;;;23.20;34.69;99860.38;7764392;32;39135;-72
2022/07/07 17:11:07;;;;;;;1.15;1.05;;;;;;;23.30;34.55;99863.78;7762167;32;40534;-71
2022/07/07 17:15:23;;;;;;;2.60;1.12;;;;;;;22.71;34.11;99863.31;7763760;32;37632;-71
2022/07/07 17:19:39;;;;;;;1.62;1.10;;;;;;;23.22;34.35;99862.81;7758493;32;36122;-72
2022/07/07 17:23:56;;;;;;;2.62;1.25;;;;;;;23.16;33.62;99858.66;7763835;32;40019;-72
2022/07/07 17:28:18;;;;;;;1.50;1.00;;;;;;;23.25;34.11;99860.12;7763074;32;40814;-71
2022/07/07 17:32:34;;;;;;;1.62;1.10;;;;;;;22.66;34.07;99869.94;7762894;32;38537;-71
2022/07/07 17:36:51;;;;;;;3.85;1.17;;;;;;;23.18;32.77;99854.38;7763661;32;37498;-71
2022/07/07 17:41:07;;;;;;;1.98;1.05;;;;;;;23.32;33.27;99862.28;7761540;32;39205;-72
2022/07/07 17:45:24;;;;;;;5.50;1.30;;;;;;;23.17;33.64;99860.28;7763697;32;40977;-71
2022/07/07 17:49:41;;;;;;;2.65;1.27;;;;;;;22.94;33.73;99858.03;7764890;32;38676;-71
2022/07/07 17:53:57;;;;;;;2.17;1.10;;;;;;;23.18;33.53;99846.03;7765563;32;36742;-71
2022/07/07 17:58:16;;;;;;;3.85;1.92;;;;;;;22.84;35.13;99862.13;7755671;32;39280;-71
2022/07/07 18:02:32;;;;;;;2.65;1.00;;;;;;;22.73;34.71;99863.75;7740158;32;39944;-71
2022/07/07 18:06:49;;;;;;;1.60;1.50;;;;;;;22.61;35.35;99869.34;7739829;32;38684;-71
2022/07/07 18:11:06;;;;;;;6.72;1.48;;;;;;;22.61;34.82;99872.13;7739759;32;35965;-70
2022/07/07 18:15:23;;;;;;;9.27;2.58;;;;;;;22.12;35.62;99873.78;7738467;32;39924;-71
2022/07/07 18:19:39;;;;;;;3.70;1.98;;;;;;;22.04;36.85;99879.47;7739936;32;40606;-71
2022/07/07 18:23:55;;;;;;;2.42;1.65;;;;;;;22.77;35.30;99881.38;7758761;32;37775;-70
2022/07/07 18:28:17;;;;;;;11.27;1.83;;;;;;;22.72;35.35;99889.94;7739589;32;36914;-71
2022/07/07 18:32:33;;;;;;;3.05;1.45;;;;;;;22.49;36.77;99882.13;7740322;32;39527;-71
2022/07/07 18:36:50;;;;;;;3.08;1.75;;;;;;;22.43;37.21;99891.84;7739322;32;40867;-70
2022/07/07 18:41:06;;;;;;;3.17;1.80;;;;;;;21.93;37.90;99891.03;7739172;32;38067;-71
2022/07/07 18:45:22;;;;;;;4.47;1.62;;;;;;;21.40;38.74;99901.06;7745000;32;37222;-71
2022/07/07 18:49:38;;;;;;;5.15;1.60;;;;;;;21.89;37.35;99897.62;7753151;32;39195;-71
2022/07/07 18:53:54;;;;;;;13.30;2.20;;;;;;;21.72;37.61;99896.69;7738443;32;41231;-71
2022/07/07 18:58:17;;;;;;;4.53;1.87;;;;;;;21.60;37.57;99902.22;7749085;32;38741;-71
2022/07/07 19:02:33;;;;;;;2.65;1.73;;;;;;;21.34;38.94;99908.81;7741484;32;36867;-71
2022/07/07 19:06:51;;;;;;;2.78;1.70;;;;;;;21.11;39.31;99918.63;7738076;32;39374;-71
2022/07/07 19:11:08;;;;;;;5.55;2.00;;;;;;;21.36;38.71;99914.81;7738837;32;39927;-71
2022/07/07 19:15:30;;;;;;;4.97;1.70;;;;;;;21.50;38.63;99920.09;7737772;32;38782;-71
2022/07/07 19:19:47;;;;;;;3.58;1.70;;;;;;;21.42;39.00;99928.47;7737958;32;37109;-73
2022/07/07 19:24:04;;;;;;;5.07;1.90;;;;;;;21.15;39.31;99930.69;7750576;32;39718;-70
2022/07/07 19:28:20;;;;;;;2.62;1.58;;;;;;;21.11;39.49;99940.81;7757122;32;40836;-71
2022/07/07 19:32:37;;;;;;;3.40;1.90;;;;;;;21.33;39.19;99947.97;7739346;32;38253;-71
2022/07/07 19:36:53;;;;;;;4.15;2.37;;;;;;;21.51;39.20;99937.56;7754126;32;36927;-71
2022/07/07 19:41:09;;;;;;;3.83;2.20;;;;;;;21.59;39.45;99949.69;7765287;32;40480;-71
2022/07/07 19:45:25;;;;;;;5.22;1.95;;;;;;;21.58;40.10;99943.34;7749205;32;40072;-71
2022/07/07 19:49:42;;;;;;;4.68;1.60;;;;;;;21.63;39.44;99937.59;7764937;32;37958;-71
2022/07/07 19:53:58;;;;;;;7.35;1.80;;;;;;;21.56;39.81;99945.66;7754438;32;36989;-71
2022/07/07 19:58:14;;;;;;;3.03;1.90;;;;;;;21.64;39.71;99943.94;7764368;32;39459;-71
2022/07/07 20:02:30;;;;;;;4.55;2.00;;;;;;;21.39;40.09;99936.31;7750672;32;39812;-71
2022/07/07 20:06:46;;;;;;;5.18;2.12;;;;;;;21.36;40.22;99925.09;7756508;32;37874;-71